sensor_id;sensor_type;location;lat;lon;timestamp;pressure;altitude;pressure_sealevel;temperature;humidity
33454;BME280;39400;49.744;7.012;2023-01-15T00:01:32;94538.16;;;6.50;100.00
33454;BME280;39400;49.744;7.012;2023-01-15T00:03:58;94527.69;;;6.45;100.00
33454;BME280;39400;49.744;7.012;2023-01-15T00:06:24;94542.53;;;6.40;100.00
33454;BME280;39400;49.744;7.012;2023-01-15T00:08:50;94552.72;;;6.32;100.00
33454;BME280;39400;49.744;7.012;2023-01-15T00:11:16;94548.50;;;6.21;100.00
33454;BME280;39400;49.744;7.012;2023-01-15T00:13:42;94554.81;;;6.10;100.00
33454;BME280;39400;49.744;7.012;2023-01-15T00:16:10;94564.16;;;6.09;100.00
33454;BME280;39400;49.744;7.012;2023-01-15T00:18:37;94561.88;;;6.04;100.00
33454;BME280;39400;49.744;7.012;2023-01-15T00:21:05;94550.91;;;6.11;100.00
33454;BME280;39400;49.744;7.012;2023-01-15T00:23:31;94554.06;;;6.06;100.00
33454;BME280;39400;49.744;7.012;2023-01-15T00:25:56;94537.63;;;6.17;100.00
33454;BME280;39400;49.744;7.012;2023-01-15T00:28:22;94534.47;;;6.18;100.00
33454;BME280;39400;49.744;7.012;2023-01-15T00:30:47;94526.69;;;6.21;100.00
33454;BME280;39400;49.744;7.012;2023-01-15T00:33:12;94525.91;;;6.16;100.00
33454;BME280;39400;49.744;7.012;2023-01-15T00:35:38;94542.66;;;6.22;100.00
33454;BME280;39400;49.744;7.012;2023-01-15T00:38:03;94538.81;;;6.12;100.00
33454;BME280;39400;49.744;7.012;2023-01-15T00:40:29;94538.56;;;5.82;100.00
33454;BME280;39400;49.744;7.012;2023-01-15T00:42:54;94536.34;;;5.59;100.00
33454;BME280;39400;49.744;7.012;2023-01-15T00:45:19;94540.31;;;5.33;100.00
33454;BME280;39400;49.744;7.012;2023-01-15T00:47:45;94545.81;;;5.15;100.00
33454;BME280;39400;49.744;7.012;2023-01-15T00:50:13;94555.16;;;5.17;100.00
33454;BME280;39400;49.744;7.012;2023-01-15T00:52:40;94573.84;;;5.08;100.00
33454;BME280;39400;49.744;7.012;2023-01-15T00:55:06;94572.28;;;5.14;100.00
33454;BME280;39400;49.744;7.012;2023-01-15T00:57:31;94573.09;;;5.04;100.00
33454;BME280;39400;49.744;7.012;2023-01-15T00:59:57;94563.75;;;4.98;100.00
33454;BME280;39400;49.744;7.012;2023-01-15T01:02:24;94571.56;;;4.96;100.00
33454;BME280;39400;49.744;7.012;2023-01-15T01:04:49;94580.09;;;4.84;100.00
33454;BME280;39400;49.744;7.012;2023-01-15T01:07:15;94576.19;;;4.88;100.00
33454;BME280;39400;49.744;7.012;2023-01-15T01:09:40;94588.69;;;4.82;100.00
33454;BME280;39400;49.744;7.012;2023-01-15T01:12:06;94579.34;;;4.72;100.00
33454;BME280;39400;49.744;7.012;2023-01-15T01:14:31;94590.59;;;4.74;100.00
33454;BME280;39400;49.744;7.012;2023-01-15T01:16:57;94605.03;;;4.64;100.00
33454;BME280;39400;49.744;7.012;2023-01-15T01:19:24;94602.28;;;4.64;100.00
33454;BME280;39400;49.744;7.012;2023-01-15T01:21:50;94617.44;;;4.65;100.00
33454;BME280;39400;49.744;7.012;2023-01-15T01:24:19;94620.16;;;4.58;100.00
33454;BME280;39400;49.744;7.012;2023-01-15T01:26:45;94619.00;;;4.66;100.00
33454;BME280;39400;49.744;7.012;2023-01-15T01:29:16;94616.69;;;4.61;100.00
33454;BME280;39400;49.744;7.012;2023-01-15T01:31:42;94629.09;;;4.48;100.00
33454;BME280;39400;49.744;7.012;2023-01-15T01:34:08;94614.31;;;4.38;100.00
33454;BME280;39400;49.744;7.012;2023-01-15T01:36:35;94615.09;;;4.49;100.00
33454;BME280;39400;49.744;7.012;2023-01-15T01:39:02;94605.72;;;4.33;100.00
33454;BME280;39400;49.744;7.012;2023-01-15T01:41:28;94611.16;;;4.18;100.00
33454;BME280;39400;49.744;7.012;2023-01-15T01:44:56;94620.50;;;4.24;100.00
33454;BME280;39400;49.744;7.012;2023-01-15T01:46:49;94627.47;;;4.18;100.00
33454;BME280;39400;49.744;7.012;2023-01-15T01:49:15;94633.66;;;4.08;100.00
33454;BME280;39400;49.744;7.012;2023-01-15T01:51:50;94623.59;;;4.16;100.00
33454;BME280;39400;49.744;7.012;2023-01-15T01:54:20;94623.53;;;4.01;100.00
33454;BME280;39400;49.744;7.012;2023-01-15T01:56:48;94614.25;;;4.10;100.00
33454;BME280;39400;49.744;7.012;2023-01-15T01:59:16;94615.03;;;4.10;100.00
33454;BME280;39400;49.744;7.012;2023-01-15T02:01:43;94615.81;;;4.21;100.00
33454;BME280;39400;49.744;7.012;2023-01-15T02:04:09;94617.41;;;4.29;100.00
33454;BME280;39400;49.744;7.012;2023-01-15T02:06:37;94610.38;;;4.11;100.00
33454;BME280;39400;49.744;7.012;2023-01-15T02:09:03;94606.13;;;4.20;100.00
33454;BME280;39400;49.744;7.012;2023-01-15T02:11:29;94611.94;;;4.22;100.00
33454;BME280;39400;49.744;7.012;2023-01-15T02:14:01;94611.53;;;4.13;100.00
33454;BME280;39400;49.744;7.012;2023-01-15T02:16:44;94600.66;;;4.06;100.00
33454;BME280;39400;49.744;7.012;2023-01-15T02:19:29;94611.13;;;4.11;100.00
33454;BME280;39400;49.744;7.012;2023-01-15T02:22:11;94613.41;;;3.95;100.00
33454;BME280;39400;49.744;7.012;2023-01-15T02:27:38;94603.34;;;3.95;100.00
33454;BME280;39400;49.744;7.012;2023-01-15T02:30:09;94621.16;;;3.82;100.00
33454;BME280;39400;49.744;7.012;2023-01-15T02:32:53;94625.84;;;3.89;100.00
33454;BME280;39400;49.744;7.012;2023-01-15T02:35:26;94618.06;;;3.87;100.00
33454;BME280;39400;49.744;7.012;2023-01-15T02:37:57;94629.72;;;3.95;100.00
33454;BME280;39400;49.744;7.012;2023-01-15T02:40:26;94618.81;;;3.80;100.00
33454;BME280;39400;49.744;7.012;2023-01-15T02:42:53;94625.00;;;3.77;100.00
33454;BME280;39400;49.744;7.012;2023-01-15T02:45:24;94623.47;;;3.80;100.00
33454;BME280;39400;49.744;7.012;2023-01-15T02:47:57;94618.81;;;3.88;100.00
33454;BME280;39400;49.744;7.012;2023-01-15T02:50:29;94628.91;;;3.84;100.00
33454;BME280;39400;49.744;7.012;2023-01-15T02:53:01;94620.44;;;4.03;100.00
33454;BME280;39400;49.744;7.012;2023-01-15T02:55:34;94618.84;;;3.95;100.00
33454;BME280;39400;49.744;7.012;2023-01-15T02:58:05;94621.22;;;4.03;100.00
33454;BME280;39400;49.744;7.012;2023-01-15T03:00:36;94623.50;;;3.91;100.00
33454;BME280;39400;49.744;7.012;2023-01-15T03:03:11;94626.59;;;3.86;100.00
33454;BME280;39400;49.744;7.012;2023-01-15T03:05:40;94626.97;;;3.80;100.00
33454;BME280;39400;49.744;7.012;2023-01-15T03:08:08;94630.50;;;3.85;100.00
33454;BME280;39400;49.744;7.012;2023-01-15T03:11:10;94636.31;;;3.90;100.00
33454;BME280;39400;49.744;7.012;2023-01-15T03:14:01;94621.16;;;3.82;100.00
33454;BME280;39400;49.744;7.012;2023-01-15T03:22:12;94617.94;;;3.55;100.00
33454;BME280;39400;49.744;7.012;2023-01-15T03:24:45;94626.81;;;3.45;100.00
33454;BME280;39400;49.744;7.012;2023-01-15T03:27:11;94624.84;;;3.45;100.00
33454;BME280;39400;49.744;7.012;2023-01-15T03:29:45;94611.25;;;3.42;100.00
33454;BME280;39400;49.744;7.012;2023-01-15T03:32:11;94632.53;;;3.32;100.00
33454;BME280;39400;49.744;7.012;2023-01-15T03:34:46;94632.28;;;3.52;100.00
33454;BME280;39400;49.744;7.012;2023-01-15T03:37:17;94634.88;;;3.30;100.00
33454;BME280;39400;49.744;7.012;2023-01-15T03:39:43;94641.88;;;3.35;100.00
33454;BME280;39400;49.744;7.012;2023-01-15T03:42:49;94650.44;;;3.37;100.00
33454;BME280;39400;49.744;7.012;2023-01-15T03:45:26;94644.97;;;3.30;100.00
33454;BME280;39400;49.744;7.012;2023-01-15T03:48:09;94638.72;;;3.22;100.00
33454;BME280;39400;49.744;7.012;2023-01-15T03:50:45;94653.38;;;3.14;100.00
33454;BME280;39400;49.744;7.012;2023-01-15T03:53:20;94669.72;;;3.21;100.00
33454;BME280;39400;49.744;7.012;2023-01-15T03:56:03;94657.78;;;3.29;100.00
33454;BME280;39400;49.744;7.012;2023-01-15T03:58:40;94648.75;;;3.18;100.00
33454;BME280;39400;49.744;7.012;2023-01-15T04:01:12;94651.13;;;3.23;100.00
33454;BME280;39400;49.744;7.012;2023-01-15T04:03:41;94641.03;;;3.24;100.00
33454;BME280;39400;49.744;7.012;2023-01-15T04:06:08;94646.50;;;3.31;100.00
33454;BME280;39400;49.744;7.012;2023-01-15T04:08:40;94641.91;;;3.39;100.00
33454;BME280;39400;49.744;7.012;2023-01-15T04:11:07;94640.38;;;3.45;100.00
33454;BME280;39400;49.744;7.012;2023-01-15T04:13:40;94643.47;;;3.36;100.00
33454;BME280;39400;49.744;7.012;2023-01-15T04:16:11;94652.72;;;3.31;100.00
33454;BME280;39400;49.744;7.012;2023-01-15T04:18:37;94654.72;;;3.38;100.00
33454;BME280;39400;49.744;7.012;2023-01-15T04:21:02;94657.66;;;3.15;100.00
33454;BME280;39400;49.744;7.012;2023-01-15T04:23:31;94656.56;;;3.23;100.00
33454;BME280;39400;49.744;7.012;2023-01-15T04:25:56;94668.19;;;3.20;100.00
33454;BME280;39400;49.744;7.012;2023-01-15T04:28:21;94654.88;;;3.08;100.00
33454;BME280;39400;49.744;7.012;2023-01-15T04:30:47;94669.53;;;2.93;100.00
33454;BME280;39400;49.744;7.012;2023-01-15T04:33:12;94653.25;;;2.93;100.00
33454;BME280;39400;49.744;7.012;2023-01-15T04:35:38;94656.00;;;3.00;100.00
33454;BME280;39400;49.744;7.012;2023-01-15T04:38:03;94647.44;;;2.98;100.00
33454;BME280;39400;49.744;7.012;2023-01-15T04:40:28;94648.97;;;2.92;100.00
33454;BME280;39400;49.744;7.012;2023-01-15T04:42:54;94656.31;;;2.88;100.00
33454;BME280;39400;49.744;7.012;2023-01-15T04:45:20;94655.47;;;2.83;100.00
33454;BME280;39400;49.744;7.012;2023-01-15T04:47:45;94667.44;;;2.75;100.00
33454;BME280;39400;49.744;7.012;2023-01-15T04:50:10;94675.53;;;2.68;100.00
33454;BME280;39400;49.744;7.012;2023-01-15T04:52:36;94670.41;;;2.63;100.00
33454;BME280;39400;49.744;7.012;2023-01-15T04:55:03;94680.47;;;2.59;100.00
33454;BME280;39400;49.744;7.012;2023-01-15T04:57:28;94683.88;;;2.52;100.00
33454;BME280;39400;49.744;7.012;2023-01-15T04:59:53;94694.66;;;2.45;100.00
33454;BME280;39400;49.744;7.012;2023-01-15T05:02:19;94693.91;;;2.45;100.00
33454;BME280;39400;49.744;7.012;2023-01-15T05:04:44;94700.00;;;2.34;100.00
33454;BME280;39400;49.744;7.012;2023-01-15T05:07:09;94688.81;;;2.40;100.00
33454;BME280;39400;49.744;7.012;2023-01-15T05:09:35;94685.63;;;2.30;100.00
33454;BME280;39400;49.744;7.012;2023-01-15T05:12:00;94680.63;;;2.32;100.00
33454;BME280;39400;49.744;7.012;2023-01-15T05:14:26;94684.44;;;2.31;100.00
33454;BME280;39400;49.744;7.012;2023-01-15T05:16:51;94681.53;;;2.47;100.00
33454;BME280;39400;49.744;7.012;2023-01-15T05:19:16;94677.56;;;2.37;100.00
33454;BME280;39400;49.744;7.012;2023-01-15T05:21:42;94675.19;;;2.32;100.00
33454;BME280;39400;49.744;7.012;2023-01-15T05:24:12;94673.88;;;2.19;100.00
33454;BME280;39400;49.744;7.012;2023-01-15T05:26:38;94686.69;;;2.22;100.00
33454;BME280;39400;49.744;7.012;2023-01-15T05:29:04;94687.44;;;2.19;100.00
33454;BME280;39400;49.744;7.012;2023-01-15T05:31:30;94681.16;;;2.11;100.00
33454;BME280;39400;49.744;7.012;2023-01-15T05:33:55;94687.19;;;1.98;100.00
33454;BME280;39400;49.744;7.012;2023-01-15T05:36:24;94684.63;;;2.08;100.00
33454;BME280;39400;49.744;7.012;2023-01-15T05:38:50;94683.53;;;2.17;100.00
33454;BME280;39400;49.744;7.012;2023-01-15T05:41:18;94674.09;;;2.03;100.00
33454;BME280;39400;49.744;7.012;2023-01-15T05:43:43;94679.53;;;2.07;100.00
33454;BME280;39400;49.744;7.012;2023-01-15T05:46:08;94681.44;;;2.03;100.00
33454;BME280;39400;49.744;7.012;2023-01-15T05:48:34;94699.34;;;2.11;100.00
33454;BME280;39400;49.744;7.012;2023-01-15T05:51:00;94710.00;;;1.97;100.00
33454;BME280;39400;49.744;7.012;2023-01-15T05:53:26;94706.56;;;2.00;100.00
33454;BME280;39400;49.744;7.012;2023-01-15T05:55:51;94705.44;;;2.04;100.00
33454;BME280;39400;49.744;7.012;2023-01-15T05:58:16;94715.44;;;1.97;100.00
33454;BME280;39400;49.744;7.012;2023-01-15T06:00:42;94716.59;;;1.96;100.00
33454;BME280;39400;49.744;7.012;2023-01-15T06:03:07;94709.25;;;1.96;100.00
33454;BME280;39400;49.744;7.012;2023-01-15T06:05:32;94720.59;;;2.05;100.00
33454;BME280;39400;49.744;7.012;2023-01-15T06:07:58;94726.13;;;2.16;100.00
33454;BME280;39400;49.744;7.012;2023-01-15T06:10:23;94719.28;;;2.26;100.00
33454;BME280;39400;49.744;7.012;2023-01-15T06:12:48;94722.31;;;2.21;100.00
33454;BME280;39400;49.744;7.012;2023-01-15T06:15:13;94723.97;;;2.29;100.00
33454;BME280;39400;49.744;7.012;2023-01-15T06:17:39;94725.88;;;2.28;100.00
33454;BME280;39400;49.744;7.012;2023-01-15T06:20:04;94722.03;;;2.29;100.00
33454;BME280;39400;49.744;7.012;2023-01-15T06:22:30;94716.09;;;2.20;100.00
33454;BME280;39400;49.744;7.012;2023-01-15T06:24:55;94719.81;;;2.05;100.00
33454;BME280;39400;49.744;7.012;2023-01-15T06:27:20;94719.81;;;2.05;100.00
33454;BME280;39400;49.744;7.012;2023-01-15T06:29:46;94714.47;;;2.12;100.00
33454;BME280;39400;49.744;7.012;2023-01-15T06:32:11;94726.78;;;2.06;100.00
33454;BME280;39400;49.744;7.012;2023-01-15T06:34:36;94729.00;;;1.97;100.00
33454;BME280;39400;49.744;7.012;2023-01-15T06:37:02;94732.22;;;2.06;100.00
33454;BME280;39400;49.744;7.012;2023-01-15T06:39:27;94740.34;;;2.06;100.00
33454;BME280;39400;49.744;7.012;2023-01-15T06:41:52;94746.41;;;1.96;100.00
33454;BME280;39400;49.744;7.012;2023-01-15T06:44:18;94744.16;;;1.71;100.00
33454;BME280;39400;49.744;7.012;2023-01-15T06:46:45;94751.75;;;1.88;100.00
33454;BME280;39400;49.744;7.012;2023-01-15T06:49:11;94748.84;;;1.74;100.00
33454;BME280;39400;49.744;7.012;2023-01-15T06:51:36;94746.34;;;1.62;100.00
33454;BME280;39400;49.744;7.012;2023-01-15T06:54:02;94741.00;;;1.69;100.00
33454;BME280;39400;49.744;7.012;2023-01-15T06:56:27;94745.03;;;1.79;100.00
33454;BME280;39400;49.744;7.012;2023-01-15T06:58:52;94748.31;;;1.65;100.00
33454;BME280;39400;49.744;7.012;2023-01-15T07:01:18;94760.94;;;1.54;100.00
33454;BME280;39400;49.744;7.012;2023-01-15T07:03:43;94775.53;;;1.46;100.00
33454;BME280;39400;49.744;7.012;2023-01-15T07:06:10;94795.69;;;1.25;100.00
33454;BME280;39400;49.744;7.012;2023-01-15T07:08:36;94781.25;;;1.17;100.00
33454;BME280;39400;49.744;7.012;2023-01-15T07:11:07;94776.09;;;1.09;100.00
33454;BME280;39400;49.744;7.012;2023-01-15T07:13:34;94773.38;;;1.09;100.00
33454;BME280;39400;49.744;7.012;2023-01-15T07:16:01;94787.53;;;1.22;100.00
33454;BME280;39400;49.744;7.012;2023-01-15T07:18:28;94793.09;;;1.32;100.00
33454;BME280;39400;49.744;7.012;2023-01-15T07:20:57;94790.56;;;1.20;100.00
33454;BME280;39400;49.744;7.012;2023-01-15T07:23:24;94787.63;;;1.29;100.00
33454;BME280;39400;49.744;7.012;2023-01-15T07:25:53;94793.84;;;1.29;100.00
33454;BME280;39400;49.744;7.012;2023-01-15T07:28:20;94800.22;;;0.94;100.00
33454;BME280;39400;49.744;7.012;2023-01-15T07:30:46;94796.53;;;1.06;100.00
33454;BME280;39400;49.744;7.012;2023-01-15T07:33:11;94804.31;;;1.08;100.00
33454;BME280;39400;49.744;7.012;2023-01-15T07:35:37;94811.41;;;1.16;100.00
33454;BME280;39400;49.744;7.012;2023-01-15T07:38:02;94814.66;;;1.25;100.00
33454;BME280;39400;49.744;7.012;2023-01-15T07:40:28;94803.94;;;1.32;100.00
33454;BME280;39400;49.744;7.012;2023-01-15T07:42:53;94807.78;;;1.31;100.00
33454;BME280;39400;49.744;7.012;2023-01-15T07:45:18;94803.38;;;1.46;100.00
33454;BME280;39400;49.744;7.012;2023-01-15T07:47:44;94800.31;;;1.48;100.00
33454;BME280;39400;49.744;7.012;2023-01-15T07:50:15;94803.53;;;1.57;100.00
33454;BME280;39400;49.744;7.012;2023-01-15T07:52:41;94795.94;;;1.66;100.00
33454;BME280;39400;49.744;7.012;2023-01-15T07:55:06;94786.13;;;1.58;100.00
33454;BME280;39400;49.744;7.012;2023-01-15T07:57:32;94776.13;;;1.62;100.00
33454;BME280;39400;49.744;7.012;2023-01-15T07:59:58;94776.56;;;1.64;100.00
33454;BME280;39400;49.744;7.012;2023-01-15T08:02:23;94781.97;;;1.64;100.00
33454;BME280;39400;49.744;7.012;2023-01-15T08:04:49;94785.94;;;1.70;100.00
33454;BME280;39400;49.744;7.012;2023-01-15T08:07:14;94802.19;;;1.70;100.00
33454;BME280;39400;49.744;7.012;2023-01-15T08:09:39;94836.28;;;1.71;100.00
33454;BME280;39400;49.744;7.012;2023-01-15T08:12:05;94851.59;;;1.60;100.00
33454;BME280;39400;49.744;7.012;2023-01-15T08:14:31;94875.31;;;1.43;100.00
33454;BME280;39400;49.744;7.012;2023-01-15T08:16:56;94869.22;;;1.27;100.00
33454;BME280;39400;49.744;7.012;2023-01-15T08:19:21;94885.22;;;1.13;100.00
33454;BME280;39400;49.744;7.012;2023-01-15T08:21:47;94892.47;;;1.09;100.00
33454;BME280;39400;49.744;7.012;2023-01-15T08:24:12;94894.50;;;0.92;100.00
33454;BME280;39400;49.744;7.012;2023-01-15T08:26:38;94895.06;;;1.02;100.00
33454;BME280;39400;49.744;7.012;2023-01-15T08:29:03;94886.59;;;0.84;100.00
33454;BME280;39400;49.744;7.012;2023-01-15T08:31:28;94884.38;;;0.89;100.00
33454;BME280;39400;49.744;7.012;2023-01-15T08:33:54;94912.16;;;0.86;100.00
33454;BME280;39400;49.744;7.012;2023-01-15T08:36:19;94910.88;;;0.80;100.00
33454;BME280;39400;49.744;7.012;2023-01-15T08:38:47;94894.28;;;0.82;100.00
33454;BME280;39400;49.744;7.012;2023-01-15T08:41:12;94907.53;;;0.87;100.00
33454;BME280;39400;49.744;7.012;2023-01-15T08:43:38;94909.50;;;0.90;100.00
33454;BME280;39400;49.744;7.012;2023-01-15T08:46:04;94910.72;;;0.92;100.00
33454;BME280;39400;49.744;7.012;2023-01-15T08:48:30;94910.72;;;0.92;100.00
33454;BME280;39400;49.744;7.012;2023-01-15T08:50:56;94909.56;;;0.93;100.00
33454;BME280;39400;49.744;7.012;2023-01-15T08:53:22;94911.56;;;0.97;100.00
33454;BME280;39400;49.744;7.012;2023-01-15T08:55:47;94905.94;;;0.86;100.00
33454;BME280;39400;49.744;7.012;2023-01-15T08:58:13;94921.41;;;0.85;100.00
33454;BME280;39400;49.744;7.012;2023-01-15T09:00:39;94929.91;;;0.84;100.00
33454;BME280;39400;49.744;7.012;2023-01-15T09:03:05;94934.53;;;0.83;100.00
33454;BME280;39400;49.744;7.012;2023-01-15T09:05:30;94931.66;;;0.76;100.00
33454;BME280;39400;49.744;7.012;2023-01-15T09:07:55;94926.41;;;0.64;100.00
33454;BME280;39400;49.744;7.012;2023-01-15T09:10:21;94933.22;;;0.58;100.00
33454;BME280;39400;49.744;7.012;2023-01-15T09:12:47;94953.69;;;0.59;100.00
33454;BME280;39400;49.744;7.012;2023-01-15T09:15:12;94950.84;;;0.52;100.00
33454;BME280;39400;49.744;7.012;2023-01-15T09:17:38;94946.88;;;0.45;100.00
33454;BME280;39400;49.744;7.012;2023-01-15T09:20:04;94946.16;;;0.49;100.00
33454;BME280;39400;49.744;7.012;2023-01-15T09:22:29;94966.34;;;0.35;100.00
33454;BME280;39400;49.744;7.012;2023-01-15T09:24:54;94945.84;;;0.34;100.00
33454;BME280;39400;49.744;7.012;2023-01-15T09:27:20;94967.47;;;0.34;100.00
33454;BME280;39400;49.744;7.012;2023-01-15T09:29:45;94961.56;;;0.13;100.00
33454;BME280;39400;49.744;7.012;2023-01-15T09:32:10;94977.53;;;0.02;100.00
33454;BME280;39400;49.744;7.012;2023-01-15T09:34:36;94972.75;;;-0.05;100.00
33454;BME280;39400;49.744;7.012;2023-01-15T09:37:01;94987.66;;;-0.11;100.00
33454;BME280;39400;49.744;7.012;2023-01-15T09:39:26;94961.44;;;-0.10;100.00
33454;BME280;39400;49.744;7.012;2023-01-15T09:42:04;94968.22;;;-0.16;100.00
33454;BME280;39400;49.744;7.012;2023-01-15T09:44:43;94966.84;;;-0.10;100.00
33454;BME280;39400;49.744;7.012;2023-01-15T09:47:17;94968.66;;;-0.14;100.00
33454;BME280;39400;49.744;7.012;2023-01-15T09:55:17;94967.59;;;0.22;100.00
33454;BME280;39400;49.744;7.012;2023-01-15T09:57:49;94972.63;;;0.23;100.00
33454;BME280;39400;49.744;7.012;2023-01-15T10:00:19;94966.59;;;0.30;100.00
33454;BME280;39400;49.744;7.012;2023-01-15T10:05:37;94977.97;;;0.55;100.00
33454;BME280;39400;49.744;7.012;2023-01-15T10:08:20;94975.63;;;0.54;100.00
33454;BME280;39400;49.744;7.012;2023-01-15T10:10:54;94970.53;;;0.68;100.00
33454;BME280;39400;49.744;7.012;2023-01-15T10:15:54;94990.91;;;0.81;100.00
33454;BME280;39400;49.744;7.012;2023-01-15T10:18:22;94991.84;;;0.89;100.00
33454;BME280;39400;49.744;7.012;2023-01-15T10:20:54;94992.75;;;0.97;100.00
33454;BME280;39400;49.744;7.012;2023-01-15T10:26:04;95003.97;;;1.14;100.00
33454;BME280;39400;49.744;7.012;2023-01-15T10:31:21;94976.72;;;1.46;100.00
33454;BME280;39400;49.744;7.012;2023-01-15T10:36:29;94977.63;;;1.54;100.00
33454;BME280;39400;49.744;7.012;2023-01-15T10:39:17;94985.38;;;1.55;100.00
33454;BME280;39400;49.744;7.012;2023-01-15T10:44:57;94992.72;;;1.74;100.00
33454;BME280;39400;49.744;7.012;2023-01-15T10:47:31;95011.00;;;1.58;100.00
33454;BME280;39400;49.744;7.012;2023-01-15T10:50:00;95005.69;;;1.65;100.00
33454;BME280;39400;49.744;7.012;2023-01-15T10:52:30;95019.56;;;1.60;100.00
33454;BME280;39400;49.744;7.012;2023-01-15T10:55:05;95011.97;;;1.69;100.00
33454;BME280;39400;49.744;7.012;2023-01-15T10:57:53;95016.59;;;1.69;100.00
33454;BME280;39400;49.744;7.012;2023-01-15T11:00:22;95023.63;;;1.73;100.00
33454;BME280;39400;49.744;7.012;2023-01-15T11:03:03;95025.75;;;1.83;100.00
33454;BME280;39400;49.744;7.012;2023-01-15T11:05:31;95017.97;;;2.01;100.00
33454;BME280;39400;49.744;7.012;2023-01-15T11:07:58;95011.72;;;2.01;100.00
33454;BME280;39400;49.744;7.012;2023-01-15T11:10:24;95011.50;;;2.32;100.00
33454;BME280;39400;49.744;7.012;2023-01-15T11:12:52;95009.31;;;2.42;100.00
33454;BME280;39400;49.744;7.012;2023-01-15T11:15:23;95002.16;;;2.30;100.00
33454;BME280;39400;49.744;7.012;2023-01-15T11:17:49;95001.50;;;2.36;100.00
33454;BME280;39400;49.744;7.012;2023-01-15T11:22:45;94988.91;;;2.78;100.00
33454;BME280;39400;49.744;7.012;2023-01-15T11:25:11;95013.34;;;2.51;100.00
33454;BME280;39400;49.744;7.012;2023-01-15T11:27:36;95007.78;;;2.44;100.00
33454;BME280;39400;49.744;7.012;2023-01-15T11:30:05;95009.19;;;2.34;100.00
33454;BME280;39400;49.744;7.012;2023-01-15T11:32:32;94989.81;;;2.32;100.00
33454;BME280;39400;49.744;7.012;2023-01-15T11:35:00;94992.13;;;2.34;100.00
33454;BME280;39400;49.744;7.012;2023-01-15T11:37:26;94985.47;;;2.54;100.00
33454;BME280;39400;49.744;7.012;2023-01-15T11:39:56;94990.94;;;2.31;100.00
33454;BME280;39400;49.744;7.012;2023-01-15T11:42:22;94981.31;;;2.11;100.00
33454;BME280;39400;49.744;7.012;2023-01-15T11:45:13;94986.38;;;2.12;100.00
33454;BME280;39400;49.744;7.012;2023-01-15T11:47:49;94993.53;;;2.24;100.00
33454;BME280;39400;49.744;7.012;2023-01-15T11:50:17;94987.41;;;2.54;100.00
33454;BME280;39400;49.744;7.012;2023-01-15T11:52:53;94974.03;;;2.68;100.00
33454;BME280;39400;49.744;7.012;2023-01-15T11:55:21;94974.63;;;3.15;100.00
33454;BME280;39400;49.744;7.012;2023-01-15T11:57:49;94978.06;;;3.42;100.00
33454;BME280;39400;49.744;7.012;2023-01-15T12:00:21;94975.53;;;3.22;100.00
33454;BME280;39400;49.744;7.012;2023-01-15T12:02:48;94976.81;;;3.02;100.00
33454;BME280;39400;49.744;7.012;2023-01-15T12:05:17;94973.59;;;2.93;100.00
33454;BME280;39400;49.744;7.012;2023-01-15T12:07:44;94976.63;;;2.88;100.00
33454;BME280;39400;49.744;7.012;2023-01-15T12:10:19;94966.78;;;3.06;100.00
33454;BME280;39400;49.744;7.012;2023-01-15T12:12:58;94975.22;;;3.01;100.00
33454;BME280;39400;49.744;7.012;2023-01-15T12:15:52;94976.56;;;3.14;100.00
33454;BME280;39400;49.744;7.012;2023-01-15T12:27:11;94961.91;;;2.89;100.00
33454;BME280;39400;49.744;7.012;2023-01-15T12:30:12;94962.50;;;2.75;100.00
33454;BME280;39400;49.744;7.012;2023-01-15T12:32:51;94958.69;;;2.79;100.00
33454;BME280;39400;49.744;7.012;2023-01-15T12:35:28;94954.16;;;2.91;100.00
33454;BME280;39400;49.744;7.012;2023-01-15T12:38:04;94951.69;;;2.78;100.00
33454;BME280;39400;49.744;7.012;2023-01-15T12:43:38;94948.63;;;2.83;100.00
33454;BME280;39400;49.744;7.012;2023-01-15T12:46:05;94959.41;;;2.76;100.00
33454;BME280;39400;49.744;7.012;2023-01-15T12:48:56;94933.00;;;2.73;100.00
33454;BME280;39400;49.744;7.012;2023-01-15T12:51:35;94939.28;;;2.77;100.00
33454;BME280;39400;49.744;7.012;2023-01-15T12:54:10;94939.19;;;2.70;100.00
33454;BME280;39400;49.744;7.012;2023-01-15T12:56:52;94950.34;;;2.65;100.00
33454;BME280;39400;49.744;7.012;2023-01-15T12:59:24;94953.06;;;2.65;100.00
33454;BME280;39400;49.744;7.012;2023-01-15T13:02:35;94952.28;;;2.65;100.00
33454;BME280;39400;49.744;7.012;2023-01-15T13:10:31;94948.59;;;2.80;100.00
33454;BME280;39400;49.744;7.012;2023-01-15T13:13:13;94948.16;;;2.74;100.00
33454;BME280;39400;49.744;7.012;2023-01-15T13:15:52;94933.75;;;2.70;100.00
33454;BME280;39400;49.744;7.012;2023-01-15T13:18:35;94931.34;;;2.65;100.00
33454;BME280;39400;49.744;7.012;2023-01-15T13:21:13;94931.97;;;2.55;100.00
33454;BME280;39400;49.744;7.012;2023-01-15T13:24:14;94954.47;;;2.55;100.00
33454;BME280;39400;49.744;7.012;2023-01-15T13:32:33;94967.63;;;2.04;100.00
33454;BME280;39400;49.744;7.012;2023-01-15T13:35:08;94976.81;;;1.96;100.00
33454;BME280;39400;49.744;7.012;2023-01-15T13:37:45;94978.25;;;1.89;100.00
33454;BME280;39400;49.744;7.012;2023-01-15T13:40:38;94975.25;;;1.95;100.00
33454;BME280;39400;49.744;7.012;2023-01-15T13:43:06;94965.97;;;1.96;100.00
33454;BME280;39400;49.744;7.012;2023-01-15T13:45:41;94967.63;;;2.04;100.00
33454;BME280;39400;49.744;7.012;2023-01-15T13:48:13;94958.50;;;2.12;100.00
33454;BME280;39400;49.744;7.012;2023-01-15T13:50:42;94960.16;;;2.20;100.00
33454;BME280;39400;49.744;7.012;2023-01-15T13:55:55;94966.41;;;2.24;100.00
33454;BME280;39400;49.744;7.012;2023-01-15T13:58:29;94970.72;;;2.25;100.00
33454;BME280;39400;49.744;7.012;2023-01-15T14:06:43;94946.41;;;2.32;100.00
33454;BME280;39400;49.744;7.012;2023-01-15T14:09:28;94946.09;;;2.37;100.00
33454;BME280;39400;49.744;7.012;2023-01-15T14:22:56;94963.81;;;2.31;100.00
33454;BME280;39400;49.744;7.012;2023-01-15T14:34:03;94957.78;;;2.15;100.00
33454;BME280;39400;49.744;7.012;2023-01-15T14:36:51;94979.50;;;2.19;100.00